createdAt,value
2019-02-08T00:01:56.856Z,3.03
2019-02-08T00:04:25.458Z,2.90
2019-02-08T00:06:54.085Z,2.50
2019-02-08T00:09:22.724Z,2.40
2019-02-08T00:11:51.796Z,2.30
2019-02-08T00:14:20.400Z,3.27
2019-02-08T00:16:48.997Z,2.67
2019-02-08T00:19:17.561Z,2.33
2019-02-08T00:21:46.122Z,3.20
2019-02-08T00:24:15.167Z,2.90
2019-02-08T00:26:44.058Z,2.27
2019-02-08T00:29:12.890Z,2.37
2019-02-08T00:31:41.679Z,2.53
2019-02-08T00:34:10.319Z,2.30
2019-02-08T00:36:39.148Z,2.60
2019-02-08T00:39:10.755Z,1.63
2019-02-08T00:41:39.392Z,2.43
2019-02-08T00:44:08.237Z,2.27
2019-02-08T00:46:36.798Z,2.30
2019-02-08T00:49:05.447Z,2.37
2019-02-08T00:51:34.095Z,2.40
2019-02-08T00:54:02.645Z,2.87
2019-02-08T00:56:31.218Z,2.90
2019-02-08T00:58:59.787Z,2.60
2019-02-08T01:01:28.440Z,2.10
2019-02-08T01:03:57.022Z,2.60
2019-02-08T01:06:25.582Z,2.00
2019-02-08T01:08:54.206Z,2.20
2019-02-08T01:11:22.781Z,2.50
2019-02-08T01:13:51.342Z,2.07
2019-02-08T01:16:19.933Z,2.30
2019-02-08T01:18:48.671Z,2.67
2019-02-08T01:21:17.251Z,3.20
2019-02-08T01:23:45.877Z,1.83
2019-02-08T01:26:14.440Z,3.20
2019-02-08T01:28:43.008Z,1.77
2019-02-08T01:31:11.574Z,1.83
2019-02-08T01:33:40.378Z,1.50
2019-02-08T01:36:08.957Z,1.63
2019-02-08T01:38:37.749Z,1.97
2019-02-08T01:41:06.401Z,2.23
2019-02-08T01:43:35.313Z,2.00
2019-02-08T01:46:04.138Z,1.63
2019-02-08T01:48:32.719Z,1.93
2019-02-08T01:51:01.519Z,1.50
2019-02-08T01:53:30.107Z,1.82
2019-02-08T01:55:58.671Z,1.80
2019-02-08T01:58:27.321Z,1.80
2019-02-08T02:00:55.901Z,1.95
2019-02-08T02:03:24.604Z,1.60
2019-02-08T02:05:53.463Z,3.17
2019-02-08T02:08:22.269Z,2.13
2019-02-08T02:10:50.900Z,1.97
2019-02-08T02:13:19.550Z,1.80
2019-02-08T02:15:48.184Z,2.57
2019-02-08T02:18:17.115Z,1.90
2019-02-08T02:20:45.701Z,2.05
2019-02-08T02:23:15.766Z,1.63
2019-02-08T02:25:44.994Z,1.77
2019-02-08T02:28:13.742Z,2.50
2019-02-08T02:30:42.366Z,1.70
2019-02-08T02:33:11.720Z,2.53
2019-02-08T02:35:40.452Z,1.50
2019-02-08T02:38:09.383Z,1.87
2019-02-08T02:40:38.184Z,2.10
2019-02-08T02:43:07.362Z,2.70
2019-02-08T02:45:37.308Z,2.22
2019-02-08T02:48:07.773Z,1.80
2019-02-08T02:50:36.545Z,2.50
2019-02-08T02:53:05.353Z,2.67
2019-02-08T02:55:33.947Z,2.50
2019-02-08T02:58:02.595Z,1.95
2019-02-08T03:00:37.263Z,1.98
2019-02-08T03:03:06.102Z,2.43
2019-02-08T03:05:35.059Z,1.67
2019-02-08T03:08:04.137Z,2.03
2019-02-08T03:10:32.993Z,1.50
2019-02-08T03:13:01.625Z,1.80
2019-02-08T03:15:30.206Z,1.20
2019-02-08T03:17:59.003Z,1.43
2019-02-08T03:20:27.609Z,1.20
2019-02-08T03:22:56.489Z,1.40
2019-02-08T03:25:25.471Z,1.52
2019-02-08T03:27:54.402Z,1.70
2019-02-08T03:30:29.600Z,1.70
2019-02-08T03:32:58.246Z,2.00
2019-02-08T03:35:28.631Z,1.90
2019-02-08T03:37:57.426Z,2.40
2019-02-08T03:40:26.927Z,1.87
2019-02-08T03:42:55.994Z,1.80
2019-02-08T03:45:26.434Z,1.80
2019-02-08T03:47:55.246Z,1.63
2019-02-08T03:50:24.182Z,1.85
2019-02-08T03:52:52.887Z,2.02
2019-02-08T03:55:21.987Z,1.83
2019-02-08T03:57:50.904Z,1.63
2019-02-08T04:00:25.931Z,1.77
2019-02-08T04:02:54.644Z,1.62
2019-02-08T04:05:23.382Z,1.80
2019-02-08T04:07:52.014Z,2.33
2019-02-08T04:10:20.722Z,1.37
2019-02-08T04:12:49.356Z,2.23
2019-02-08T04:15:18.262Z,1.57
2019-02-08T04:17:46.903Z,1.70
2019-02-08T04:20:16.790Z,1.80
2019-02-08T04:22:45.590Z,1.60
2019-02-08T04:25:14.900Z,1.40
2019-02-08T04:27:43.471Z,1.20
2019-02-08T04:30:15.742Z,1.20
2019-02-08T04:32:44.316Z,1.07
2019-02-08T04:35:12.965Z,1.40
2019-02-08T04:37:41.629Z,1.57
2019-02-08T04:40:10.845Z,1.10
2019-02-08T04:42:39.480Z,1.17
2019-02-08T04:45:08.553Z,1.20
2019-02-08T04:47:37.196Z,1.20
2019-02-08T04:50:06.619Z,0.97
2019-02-08T04:52:35.191Z,1.40
2019-02-08T04:55:04.389Z,1.00
2019-02-08T04:57:32.949Z,1.20
2019-02-08T05:00:01.518Z,0.90
2019-02-08T05:02:30.241Z,1.40
2019-02-08T05:04:58.818Z,1.00
2019-02-08T05:07:27.412Z,1.20
2019-02-08T05:09:55.977Z,1.40
2019-02-08T05:12:24.603Z,1.80
2019-02-08T05:14:53.185Z,1.27
2019-02-08T05:17:21.731Z,2.07
2019-02-08T05:19:50.392Z,1.70
2019-02-08T05:22:18.959Z,2.30
2019-02-08T05:24:47.519Z,1.83
2019-02-08T05:27:16.331Z,1.93
2019-02-08T05:29:44.962Z,2.57
2019-02-08T05:32:13.539Z,2.83
2019-02-08T05:34:42.093Z,3.02
2019-02-08T05:37:10.915Z,2.17
2019-02-08T05:39:39.764Z,3.03
2019-02-08T05:42:08.649Z,3.30
2019-02-08T05:44:37.238Z,3.90
2019-02-08T05:47:06.035Z,3.80
2019-02-08T05:49:34.601Z,2.90
2019-02-08T05:52:03.186Z,3.60
2019-02-08T05:54:31.744Z,3.80
2019-02-08T05:57:00.330Z,4.17
2019-02-08T05:59:28.964Z,3.33
2019-02-08T06:01:57.547Z,3.80
2019-02-08T06:04:26.275Z,4.27
2019-02-08T06:06:54.908Z,3.83
2019-02-08T06:09:23.461Z,3.40
2019-02-08T06:11:52.383Z,4.00
2019-02-08T06:14:20.954Z,3.73
2019-02-08T06:16:49.614Z,4.13
2019-02-08T06:19:18.200Z,4.87
2019-02-08T06:21:46.766Z,4.30
2019-02-08T06:24:15.334Z,3.87
2019-02-08T06:26:43.902Z,4.33
2019-02-08T06:29:12.465Z,4.57
2019-02-08T06:31:41.218Z,4.67
2019-02-08T06:34:09.774Z,4.60
2019-02-08T06:36:38.553Z,3.80
2019-02-08T06:39:09.348Z,4.40
2019-02-08T06:41:37.996Z,4.90
2019-02-08T06:44:06.672Z,3.90
2019-02-08T06:46:35.509Z,3.70
2019-02-08T06:49:04.172Z,4.60
2019-02-08T06:51:32.741Z,3.50
2019-02-08T06:54:01.351Z,4.50
2019-02-08T06:56:55.872Z,4.00
2019-02-08T06:59:28.303Z,4.20
2019-02-08T07:02:15.916Z,3.50
2019-02-08T07:04:51.396Z,3.70
2019-02-08T07:07:34.449Z,3.67
2019-02-08T07:10:12.965Z,3.93
2019-02-08T07:12:59.365Z,3.83
2019-02-08T07:15:56.075Z,3.60
2019-02-08T07:18:58.585Z,4.47
2019-02-08T07:21:36.627Z,3.90
2019-02-08T07:24:27.882Z,3.80
2019-02-08T07:27:20.281Z,4.23
2019-02-08T07:30:10.801Z,3.37
2019-02-08T07:32:45.996Z,4.00
2019-02-08T07:35:39.771Z,4.87
2019-02-08T07:38:26.412Z,4.43
2019-02-08T07:41:24.226Z,4.60
2019-02-08T07:44:18.184Z,4.03
2019-02-08T07:46:55.472Z,4.80
2019-02-08T07:49:55.815Z,4.33
2019-02-08T07:52:46.403Z,4.43
2019-02-08T07:55:35.990Z,4.43
2019-02-08T07:58:13.636Z,4.60
2019-02-08T08:01:01.324Z,4.80
2019-02-08T08:03:47.555Z,3.97
2019-02-08T08:06:33.853Z,4.60
2019-02-08T08:09:18.835Z,4.10
2019-02-08T08:12:25.293Z,3.97
2019-02-08T08:15:09.320Z,4.10
2019-02-08T08:17:57.128Z,4.10
2019-02-08T08:20:43.653Z,5.30
2019-02-08T08:23:21.740Z,4.27
2019-02-08T08:26:27.943Z,4.00
2019-02-08T08:29:27.523Z,4.40
2019-02-08T08:32:03.710Z,4.70
2019-02-08T08:35:12.537Z,4.50
2019-02-08T08:38:17.987Z,3.87
2019-02-08T08:41:36.337Z,3.80
2019-02-08T08:44:21.253Z,4.10
2019-02-08T08:47:11.601Z,4.40
2019-02-08T08:50:08.696Z,3.60
2019-02-08T08:53:11.936Z,3.80
2019-02-08T08:56:00.305Z,4.23
2019-02-08T08:59:19.492Z,3.80
2019-02-08T09:02:37.274Z,4.00
2019-02-08T09:05:31.410Z,3.73
2019-02-08T09:08:33.565Z,3.93
2019-02-08T09:11:55.709Z,3.07
2019-02-08T09:15:11.578Z,3.30
2019-02-08T09:18:20.781Z,3.67
2019-02-08T09:21:30.939Z,3.53
2019-02-08T09:24:35.466Z,3.40
2019-02-08T09:27:37.121Z,3.53
2019-02-08T09:30:44.367Z,3.30
2019-02-08T09:33:33.349Z,2.77
2019-02-08T09:36:48.296Z,3.67
2019-02-08T09:39:38.007Z,3.30
2019-02-08T09:42:30.122Z,2.90
2019-02-08T09:45:37.254Z,3.10
2019-02-08T09:48:59.252Z,3.63
2019-02-08T09:51:52.520Z,2.23
2019-02-08T09:54:57.514Z,2.57
2019-02-08T09:58:21.406Z,2.20
2019-02-08T10:01:25.798Z,2.53
2019-02-08T10:04:30.434Z,2.50
2019-02-08T10:07:36.220Z,2.77
2019-02-08T10:11:02.283Z,2.60
2019-02-08T10:14:24.564Z,3.20
2019-02-08T10:17:42.568Z,2.40
2019-02-08T10:20:38.568Z,2.37
2019-02-08T10:23:50.044Z,2.03
2019-02-08T10:26:51.570Z,2.33
2019-02-08T10:30:09.174Z,2.60
2019-02-08T10:33:08.873Z,1.70
2019-02-08T10:36:11.984Z,2.10
2019-02-08T10:39:26.900Z,2.07
2019-02-08T10:42:48.970Z,2.10
2019-02-08T10:46:01.125Z,1.90
2019-02-08T10:49:10.051Z,1.90
2019-02-08T10:52:18.721Z,1.97
2019-02-08T10:55:23.313Z,2.03
2019-02-08T10:58:27.835Z,2.10
2019-02-08T11:01:33.209Z,2.20
2019-02-08T11:05:01.231Z,2.33
2019-02-08T11:08:13.997Z,1.70
2019-02-08T11:11:44.773Z,2.00
2019-02-08T11:14:46.700Z,1.57
2019-02-08T11:18:03.151Z,1.90
2019-02-08T11:20:31.831Z,1.70
2019-02-08T11:23:00.405Z,2.20
2019-02-08T11:25:29.219Z,2.20
2019-02-08T11:27:57.801Z,2.40
2019-02-08T11:30:26.470Z,2.50
2019-02-08T11:32:55.223Z,2.00
2019-02-08T11:35:23.818Z,2.30
2019-02-08T11:37:52.448Z,2.53
2019-02-08T11:40:24.946Z,3.13
2019-02-08T11:42:53.548Z,2.40
2019-02-08T11:45:22.296Z,2.73
2019-02-08T11:47:51.006Z,2.40
2019-02-08T11:50:20.508Z,2.50
2019-02-08T11:52:49.080Z,3.20
2019-02-08T11:55:18.033Z,3.00
2019-02-08T11:57:46.558Z,2.43
2019-02-08T12:00:18.871Z,4.37
2019-02-08T12:02:47.460Z,2.90
2019-02-08T12:05:16.176Z,2.80
2019-02-08T12:07:44.771Z,3.17
2019-02-08T12:10:13.485Z,3.17
2019-02-08T12:12:42.571Z,3.03
2019-02-08T12:15:12.624Z,3.23
2019-02-08T12:17:41.219Z,2.83
2019-02-08T12:20:10.522Z,3.00
2019-02-08T12:22:39.109Z,2.40
2019-02-08T12:25:07.941Z,2.80
2019-02-08T12:27:36.786Z,3.80
2019-02-08T12:30:09.153Z,2.83
2019-02-08T12:32:37.751Z,4.33
2019-02-08T12:35:07.431Z,3.50
2019-02-08T12:37:36.143Z,3.60
2019-02-08T12:40:06.184Z,3.23
2019-02-08T12:42:34.779Z,3.50
2019-02-08T12:45:03.844Z,3.77
2019-02-08T12:47:32.528Z,3.57
2019-02-08T12:50:01.101Z,3.53
2019-02-08T12:52:29.653Z,3.87
2019-02-08T12:54:58.261Z,3.77
2019-02-08T12:57:26.843Z,3.70
2019-02-08T12:59:55.399Z,4.10
2019-02-08T13:02:24.015Z,4.10
2019-02-08T13:04:52.590Z,4.23
2019-02-08T13:07:21.166Z,3.80
2019-02-08T13:09:49.747Z,3.73
2019-02-08T13:12:18.344Z,4.00
2019-02-08T13:14:46.913Z,3.40
2019-02-08T13:17:15.467Z,3.73
2019-02-08T13:19:44.136Z,3.47
2019-02-08T13:22:12.707Z,4.03
2019-02-08T13:24:41.295Z,2.63
2019-02-08T13:27:09.942Z,3.27
2019-02-08T13:29:38.609Z,3.00
2019-02-08T13:32:07.168Z,3.10
2019-02-08T13:34:35.766Z,3.03
2019-02-08T13:37:04.438Z,3.20
2019-02-08T13:39:34.577Z,2.80
2019-02-08T13:42:03.064Z,3.40
2019-02-08T13:44:32.121Z,2.93
2019-02-08T13:47:00.725Z,2.60
2019-02-08T13:49:29.287Z,2.77
2019-02-08T13:51:57.891Z,2.60
2019-02-08T13:54:26.445Z,2.87
2019-02-08T13:57:00.568Z,2.50
2019-02-08T13:59:25.325Z,2.93
2019-02-08T14:01:54.700Z,2.87
2019-02-08T14:04:23.516Z,2.43
2019-02-08T14:06:52.146Z,3.17
2019-02-08T14:09:21.295Z,2.70
2019-02-08T14:11:50.114Z,2.83
2019-02-08T14:14:18.918Z,3.13
2019-02-08T14:16:47.759Z,2.83
2019-02-08T14:19:16.533Z,2.53
2019-02-08T14:21:45.359Z,2.90
2019-02-08T14:24:13.933Z,2.60
2019-02-08T14:26:42.721Z,3.70
2019-02-08T14:29:11.288Z,2.27
2019-02-08T14:31:39.853Z,3.20
2019-02-08T14:34:08.511Z,2.87
2019-02-08T14:36:37.130Z,2.40
2019-02-08T14:39:09.347Z,2.10
2019-02-08T14:41:37.930Z,2.93
2019-02-08T14:44:06.655Z,2.50
2019-02-08T14:46:35.229Z,2.70
2019-02-08T14:49:03.880Z,2.50
2019-02-08T14:51:32.497Z,3.20
2019-02-08T14:54:01.075Z,3.20
2019-02-08T14:56:30.810Z,2.50
2019-02-08T14:58:59.415Z,3.20
2019-02-08T15:01:27.999Z,2.57
2019-02-08T15:03:56.633Z,2.73
2019-02-08T15:06:25.191Z,2.83
2019-02-08T15:08:53.750Z,2.47
2019-02-08T15:11:22.318Z,2.83
2019-02-08T15:13:51.125Z,3.33
2019-02-08T15:16:19.700Z,2.73
2019-02-08T15:18:48.289Z,2.80
2019-02-08T15:21:16.841Z,3.10
2019-02-08T15:23:45.440Z,2.90
2019-02-08T15:26:14.240Z,3.97
2019-02-08T15:28:42.807Z,3.30
2019-02-08T15:31:11.438Z,2.90
2019-02-08T15:33:40.024Z,3.07
2019-02-08T15:36:08.596Z,3.53
2019-02-08T15:38:37.178Z,3.90
2019-02-08T15:41:05.817Z,3.47
2019-02-08T15:43:34.446Z,3.67
2019-02-08T15:46:04.979Z,4.17
2019-02-08T15:48:33.702Z,3.40
2019-02-08T15:51:02.377Z,4.40
2019-02-08T15:53:30.979Z,3.90
2019-02-08T15:56:11.558Z,4.13
2019-02-08T15:58:40.335Z,4.47
2019-02-08T16:01:10.469Z,3.93
2019-02-08T16:03:39.102Z,4.47
2019-02-08T16:06:08.118Z,3.73
2019-02-08T16:08:36.824Z,3.73
2019-02-08T16:11:05.795Z,3.80
2019-02-08T16:13:34.355Z,4.10
2019-02-08T16:16:03.017Z,4.47
2019-02-08T16:18:31.819Z,4.00
2019-02-08T16:21:00.421Z,4.20
2019-02-08T16:23:29.049Z,4.40
2019-02-08T16:25:57.616Z,3.87
2019-02-08T16:28:26.243Z,4.07
2019-02-08T16:30:54.802Z,4.40
2019-02-08T16:33:23.371Z,4.10
2019-02-08T16:35:51.999Z,4.00
2019-02-08T16:38:20.792Z,4.27
2019-02-08T16:40:49.464Z,3.90
2019-02-08T16:43:18.019Z,4.30
2019-02-08T16:45:46.604Z,4.10
2019-02-08T16:48:15.281Z,5.00
2019-02-08T16:50:44.269Z,5.63
2019-02-08T16:53:13.265Z,4.10
2019-02-08T16:55:41.847Z,4.37
2019-02-08T16:58:10.778Z,3.77
2019-02-08T17:00:39.445Z,4.00
2019-02-08T17:03:09.997Z,4.00
2019-02-08T17:05:38.699Z,3.70
2019-02-08T17:08:07.391Z,4.80
2019-02-08T17:10:36.122Z,4.70
2019-02-08T17:13:05.029Z,4.20
2019-02-08T17:15:34.623Z,4.30
2019-02-08T17:18:03.277Z,4.07
2019-02-08T17:20:36.907Z,4.43
2019-02-08T17:23:05.539Z,3.97
2019-02-08T17:25:34.277Z,4.37
2019-02-08T17:28:02.944Z,4.33
2019-02-08T17:30:31.609Z,3.57
2019-02-08T17:33:00.169Z,3.10
2019-02-08T17:35:29.081Z,3.87
2019-02-08T17:37:58.078Z,4.07
2019-02-08T17:40:28.444Z,3.63
2019-02-08T17:42:57.022Z,4.10
2019-02-08T17:45:25.763Z,3.80
2019-02-08T17:47:54.785Z,4.10
2019-02-08T17:50:24.704Z,3.50
2019-02-08T17:52:53.529Z,4.13
2019-02-08T17:55:23.170Z,3.77
2019-02-08T17:57:51.731Z,4.27
2019-02-08T18:00:45.868Z,3.97
2019-02-08T18:03:14.445Z,3.20
2019-02-08T18:05:43.097Z,4.03
2019-02-08T18:08:11.783Z,4.07
2019-02-08T18:10:41.361Z,4.13
2019-02-08T18:13:10.093Z,3.97
2019-02-08T18:15:38.664Z,3.73
2019-02-08T18:18:09.002Z,3.90
2019-02-08T18:20:40.017Z,4.57
2019-02-08T18:23:08.705Z,4.37
2019-02-08T18:25:37.353Z,4.33
2019-02-08T18:28:10.771Z,4.37
2019-02-08T18:30:36.639Z,4.13
2019-02-08T18:33:05.278Z,4.63
2019-02-08T18:35:33.862Z,4.37
2019-02-08T18:38:02.508Z,4.53
2019-02-08T18:40:31.150Z,3.83
2019-02-08T18:42:59.729Z,4.07
2019-02-08T18:45:28.500Z,4.10
2019-02-08T18:47:57.109Z,4.10
2019-02-08T18:50:27.843Z,3.67
2019-02-08T18:52:56.470Z,4.60
2019-02-08T18:55:25.359Z,6.50
2019-02-08T18:57:53.952Z,5.03
2019-02-08T19:00:24.865Z,3.90
2019-02-08T19:02:53.558Z,4.30
2019-02-08T19:05:22.352Z,3.60
2019-02-08T19:07:51.348Z,4.30
2019-02-08T19:10:20.133Z,4.00
2019-02-08T19:12:49.022Z,3.50
2019-02-08T19:15:18.785Z,3.70
2019-02-08T19:17:47.432Z,3.90
2019-02-08T19:20:17.771Z,3.27
2019-02-08T19:22:46.492Z,3.50
2019-02-08T19:25:23.561Z,3.70
2019-02-08T19:27:52.127Z,3.70
2019-02-08T19:30:25.614Z,3.80
2019-02-08T19:32:54.249Z,3.70
2019-02-08T19:35:22.935Z,3.93
2019-02-08T19:37:51.514Z,3.40
2019-02-08T19:40:28.564Z,4.27
2019-02-08T19:42:57.160Z,4.20
2019-02-08T19:45:25.890Z,4.03
2019-02-08T19:47:54.567Z,4.33
2019-02-08T19:50:25.425Z,3.33
2019-02-08T19:52:54.032Z,4.07
2019-02-08T19:55:22.626Z,4.13
2019-02-08T19:57:51.304Z,3.80
2019-02-08T20:00:21.894Z,4.00
2019-02-08T20:02:50.550Z,3.80
2019-02-08T20:05:20.849Z,3.77
2019-02-08T20:07:49.504Z,3.67
2019-02-08T20:10:20.487Z,3.73
2019-02-08T20:12:49.140Z,3.77
2019-02-08T20:15:18.288Z,3.47
2019-02-08T20:17:47.057Z,3.77
2019-02-08T20:20:15.658Z,3.57
2019-02-08T20:22:44.590Z,4.00
2019-02-08T20:25:33.953Z,3.50
2019-02-08T20:28:02.559Z,2.93
2019-02-08T20:30:31.610Z,3.90
2019-02-08T20:33:00.253Z,3.73
2019-02-08T20:35:29.110Z,3.53
2019-02-08T20:37:57.832Z,3.53
2019-02-08T20:40:37.518Z,3.10
2019-02-08T20:43:06.111Z,4.20
2019-02-08T20:45:34.838Z,4.03
2019-02-08T20:48:06.524Z,4.40
2019-02-08T20:50:35.177Z,3.97
2019-02-08T20:53:04.437Z,4.00
2019-02-08T20:55:33.262Z,3.33
2019-02-08T20:58:02.027Z,3.20
2019-02-08T21:00:36.117Z,3.67
2019-02-08T21:03:10.218Z,3.70
2019-02-08T21:05:39.019Z,3.60
2019-02-08T21:08:08.202Z,3.20
2019-02-08T21:10:37.194Z,3.50
2019-02-08T21:13:07.194Z,3.20
2019-02-08T21:15:35.931Z,3.23
2019-02-08T21:18:04.921Z,3.00
2019-02-08T21:20:33.511Z,3.47
2019-02-08T21:23:02.173Z,3.57
2019-02-08T21:25:31.198Z,3.50
2019-02-08T21:27:59.783Z,3.80
2019-02-08T21:30:28.440Z,3.80
2019-02-08T21:32:57.210Z,4.17
2019-02-08T21:35:25.860Z,3.63
2019-02-08T21:37:54.704Z,3.40
2019-02-08T21:40:24.722Z,3.30
2019-02-08T21:42:53.666Z,3.27
2019-02-08T21:45:30.165Z,3.30
2019-02-08T21:47:58.715Z,3.00
2019-02-08T21:50:27.436Z,3.90
2019-02-08T21:52:56.147Z,3.27
2019-02-08T21:55:25.140Z,3.50
2019-02-08T21:57:53.778Z,3.43
2019-02-08T22:00:27.190Z,3.37
2019-02-08T22:02:56.270Z,3.70
2019-02-08T22:05:48.560Z,3.33
2019-02-08T22:08:17.213Z,3.40
2019-02-08T22:10:45.759Z,3.40
2019-02-08T22:13:14.656Z,3.20
2019-02-08T22:15:43.315Z,3.50
2019-02-08T22:18:12.062Z,4.00
2019-02-08T22:20:40.712Z,3.70
2019-02-08T22:23:09.427Z,3.83
2019-02-08T22:25:38.009Z,3.10
2019-02-08T22:28:07.429Z,3.40
2019-02-08T22:30:36.125Z,3.10
2019-02-08T22:33:05.647Z,3.10
2019-02-08T22:35:34.535Z,4.03
2019-02-08T22:38:03.092Z,4.20
2019-02-08T22:40:31.670Z,3.57
2019-02-08T22:43:00.228Z,3.50
2019-02-08T22:45:33.382Z,3.43
2019-02-08T22:48:03.021Z,3.73
2019-02-08T22:50:31.706Z,3.07
2019-02-08T22:53:00.313Z,3.37
2019-02-08T22:55:30.359Z,3.50
2019-02-08T22:57:58.998Z,3.20
2019-02-08T23:01:27.831Z,3.50
2019-02-08T23:03:57.847Z,3.03
2019-02-08T23:06:26.577Z,3.80
2019-02-08T23:08:55.213Z,3.70
2019-02-08T23:11:24.160Z,3.00
2019-02-08T23:13:52.884Z,3.70
2019-02-08T23:16:21.521Z,3.00
2019-02-08T23:18:50.084Z,3.70
2019-02-08T23:21:18.701Z,3.53
2019-02-08T23:23:47.261Z,3.70
2019-02-08T23:26:15.891Z,4.00
2019-02-08T23:28:44.454Z,3.50
2019-02-08T23:31:13.355Z,3.20
2019-02-08T23:33:41.917Z,4.07
2019-02-08T23:36:10.724Z,4.10
2019-02-08T23:38:39.275Z,3.70
2019-02-08T23:41:08.152Z,3.87
2019-02-08T23:43:36.767Z,3.73
2019-02-08T23:46:05.397Z,4.03
2019-02-08T23:48:33.956Z,3.70
2019-02-08T23:51:02.537Z,3.33
2019-02-08T23:53:31.199Z,3.30
2019-02-08T23:55:59.836Z,3.90
2019-02-08T23:58:28.392Z,3.40
